createdAt,value
2018-11-05T00:01:32.883Z,10.77
2018-11-05T00:04:01.079Z,9.10
2018-11-05T00:06:29.339Z,11.07
2018-11-05T00:08:57.803Z,9.30
2018-11-05T00:11:26.140Z,11.10
2018-11-05T00:13:54.360Z,9.83
2018-11-05T00:16:22.607Z,9.23
2018-11-05T00:18:51.804Z,10.33
2018-11-05T00:21:20.313Z,9.57
2018-11-05T00:23:48.567Z,9.27
2018-11-05T00:26:16.874Z,10.73
2018-11-05T00:28:45.091Z,9.93
2018-11-05T00:31:13.299Z,9.73
2018-11-05T00:33:41.535Z,10.60
2018-11-05T00:36:10.715Z,8.70
2018-11-05T00:38:39.623Z,10.80
2018-11-05T00:41:08.079Z,10.27
2018-11-05T00:43:36.376Z,11.00
2018-11-05T00:46:04.801Z,10.30
2018-11-05T00:48:33.043Z,11.27
2018-11-05T00:51:01.299Z,9.50
2018-11-05T00:53:30.175Z,9.17
2018-11-05T00:55:58.529Z,9.83
2018-11-05T00:58:26.729Z,10.07
2018-11-05T01:00:54.986Z,10.13
2018-11-05T01:03:23.348Z,11.43
2018-11-05T01:05:51.610Z,10.80
2018-11-05T01:08:22.908Z,11.90
2018-11-05T01:10:51.199Z,11.97
2018-11-05T01:13:19.516Z,11.93
2018-11-05T01:15:47.742Z,10.93
2018-11-05T01:18:15.977Z,11.03
2018-11-05T01:20:44.243Z,11.90
2018-11-05T01:23:12.451Z,10.90
2018-11-05T01:25:40.791Z,11.63
2018-11-05T01:28:09.046Z,11.37
2018-11-05T01:30:37.288Z,11.30
2018-11-05T01:33:05.923Z,10.77
2018-11-05T01:35:34.259Z,10.97
2018-11-05T01:38:02.507Z,10.50
2018-11-05T01:40:30.730Z,11.20
2018-11-05T01:42:59.015Z,11.03
2018-11-05T01:45:27.270Z,10.87
2018-11-05T01:47:55.546Z,10.57
2018-11-05T01:50:23.894Z,10.87
2018-11-05T01:52:52.138Z,11.33
2018-11-05T01:55:20.395Z,10.67
2018-11-05T01:57:48.635Z,10.00
2018-11-05T02:00:18.383Z,10.63
2018-11-05T02:02:47.351Z,11.13
2018-11-05T02:05:16.211Z,11.63
2018-11-05T02:07:45.312Z,9.30
2018-11-05T02:10:15.763Z,11.30
2018-11-05T02:12:44.002Z,12.10
2018-11-05T02:15:12.798Z,12.37
2018-11-05T02:17:42.502Z,11.67
2018-11-05T02:20:11.138Z,12.27
2018-11-05T02:22:41.167Z,13.00
2018-11-05T02:25:10.875Z,11.03
2018-11-05T02:27:39.304Z,11.80
2018-11-05T02:30:09.941Z,14.00
2018-11-05T02:32:38.203Z,11.17
2018-11-05T02:35:07.442Z,12.57
2018-11-05T02:37:35.812Z,10.33
2018-11-05T02:40:05.659Z,9.57
2018-11-05T02:42:34.793Z,10.77
2018-11-05T02:45:03.108Z,11.63
2018-11-05T02:47:31.346Z,10.20
2018-11-05T02:50:00.616Z,10.70
2018-11-05T02:52:28.951Z,11.17
2018-11-05T02:54:57.284Z,11.40
2018-11-05T02:57:25.692Z,12.47
2018-11-05T02:59:54.534Z,11.73
2018-11-05T03:02:22.923Z,12.03
2018-11-05T03:04:51.200Z,11.50
2018-11-05T03:07:19.517Z,12.17
2018-11-05T03:09:47.792Z,10.77
2018-11-05T03:12:16.119Z,13.23
2018-11-05T03:14:44.424Z,10.00
2018-11-05T03:17:12.711Z,11.63
2018-11-05T03:19:40.940Z,11.73
2018-11-05T03:22:09.248Z,10.70
2018-11-05T03:24:37.492Z,10.33
2018-11-05T03:27:06.005Z,10.57
2018-11-05T03:29:34.284Z,12.50
2018-11-05T03:32:02.540Z,12.90
2018-11-05T03:34:30.783Z,11.30
2018-11-05T03:36:59.084Z,12.97
2018-11-05T03:39:27.879Z,12.93
2018-11-05T03:41:57.574Z,13.03
2018-11-05T03:44:25.787Z,13.00
2018-11-05T03:46:54.025Z,12.07
2018-11-05T03:49:22.596Z,11.90
2018-11-05T03:51:50.907Z,13.17
2018-11-05T03:54:19.176Z,11.97
2018-11-05T03:56:47.589Z,12.73
2018-11-05T03:59:16.882Z,13.00
2018-11-05T04:01:45.109Z,12.37
2018-11-05T04:04:13.352Z,13.83
2018-11-05T04:06:41.598Z,12.77
2018-11-05T04:09:11.700Z,11.23
2018-11-05T04:11:40.011Z,11.00
2018-11-05T04:14:08.543Z,12.07
2018-11-05T04:16:36.793Z,11.90
2018-11-05T04:19:05.205Z,13.10
2018-11-05T04:21:38.992Z,12.03
2018-11-05T04:24:07.788Z,13.93
2018-11-05T04:26:36.555Z,12.83
2018-11-05T04:29:04.904Z,13.87
2018-11-05T04:31:33.395Z,10.77
2018-11-05T04:34:01.728Z,11.60
2018-11-05T04:36:30.011Z,14.43
2018-11-05T04:38:58.336Z,12.10
2018-11-05T04:41:26.597Z,14.83
2018-11-05T04:43:54.883Z,14.33
2018-11-05T04:46:24.091Z,14.67
2018-11-05T04:48:52.351Z,14.10
2018-11-05T04:51:20.612Z,13.87
2018-11-05T04:53:48.845Z,15.57
2018-11-05T04:56:17.139Z,13.77
2018-11-05T04:58:45.368Z,12.83
2018-11-05T05:01:14.122Z,13.63
2018-11-05T05:03:42.344Z,14.77
2018-11-05T05:06:10.860Z,15.53
2018-11-05T05:08:39.163Z,15.80
2018-11-05T05:11:07.411Z,14.47
2018-11-05T05:13:35.639Z,15.87
2018-11-05T05:16:03.918Z,13.97
2018-11-05T05:18:32.215Z,14.50
2018-11-05T05:21:00.446Z,15.87
2018-11-05T05:23:28.747Z,14.33
2018-11-05T05:25:56.987Z,15.83
2018-11-05T05:28:25.247Z,16.70
2018-11-05T05:30:53.495Z,14.20
2018-11-05T05:33:21.764Z,14.67
2018-11-05T05:35:50.092Z,14.97
2018-11-05T05:38:18.352Z,18.63
2018-11-05T05:40:46.691Z,15.37
2018-11-05T05:43:15.747Z,15.63
2018-11-05T05:45:44.683Z,17.30
2018-11-05T05:48:12.978Z,16.20
2018-11-05T05:50:41.241Z,16.80
2018-11-05T05:53:09.530Z,18.53
2018-11-05T05:55:37.819Z,17.60
2018-11-05T05:58:06.088Z,18.60
2018-11-05T06:00:34.352Z,19.00
2018-11-05T06:03:02.675Z,15.93
2018-11-05T06:05:31.264Z,14.77
2018-11-05T06:07:59.563Z,16.27
2018-11-05T06:10:28.473Z,17.67
2018-11-05T06:12:56.844Z,18.27
2018-11-05T06:15:26.110Z,15.90
2018-11-05T06:17:54.363Z,17.57
2018-11-05T06:20:22.584Z,16.97
2018-11-05T06:22:51.035Z,19.50
2018-11-05T06:25:19.426Z,19.10
2018-11-05T06:27:47.807Z,20.40
2018-11-05T06:30:17.948Z,16.23
2018-11-05T06:32:47.016Z,16.87
2018-11-05T06:35:15.327Z,17.93
2018-11-05T06:37:43.622Z,19.60
2018-11-05T06:40:14.516Z,17.43
2018-11-05T06:42:43.707Z,17.57
2018-11-05T06:45:15.294Z,19.10
2018-11-05T06:47:44.467Z,20.37
2018-11-05T06:50:14.869Z,18.10
2018-11-05T06:52:44.230Z,17.43
2018-11-05T06:55:13.800Z,18.30
2018-11-05T06:57:42.335Z,19.37
2018-11-05T07:00:14.936Z,18.60
2018-11-05T07:02:43.543Z,19.53
2018-11-05T07:06:41.139Z,19.23
2018-11-05T07:09:10.499Z,17.70
2018-11-05T07:11:39.168Z,18.47
2018-11-05T07:14:08.003Z,18.60
2018-11-05T07:16:36.315Z,19.93
2018-11-05T07:19:05.297Z,19.17
2018-11-05T07:21:33.447Z,17.43
2018-11-05T07:24:01.720Z,18.47
2018-11-05T07:26:30.205Z,19.67
2018-11-05T07:28:58.426Z,17.43
2018-11-05T07:31:26.708Z,18.80
2018-11-05T07:33:55.249Z,20.10
2018-11-05T07:36:23.195Z,19.30
2018-11-05T07:38:51.463Z,20.80
2018-11-05T07:41:19.804Z,21.30
2018-11-05T07:43:47.978Z,21.17
2018-11-05T07:46:16.276Z,18.73
2018-11-05T07:48:44.800Z,18.40
2018-11-05T07:51:13.197Z,17.47
2018-11-05T07:53:41.416Z,17.13
2018-11-05T07:56:10.519Z,17.63
2018-11-05T07:58:38.711Z,20.87
2018-11-05T08:01:08.018Z,16.97
2018-11-05T08:03:36.275Z,19.70
2018-11-05T08:06:04.588Z,20.87
2018-11-05T08:08:32.912Z,20.63
2018-11-05T08:11:01.095Z,18.50
2018-11-05T08:13:29.367Z,21.20
2018-11-05T08:15:57.683Z,20.90
2018-11-05T08:18:25.953Z,19.03
2018-11-05T08:20:54.751Z,19.17
2018-11-05T08:23:23.207Z,17.83
2018-11-05T08:25:51.552Z,19.97
2018-11-05T08:28:20.432Z,21.00
2018-11-05T08:30:48.699Z,21.33
2018-11-05T08:33:16.919Z,19.17
2018-11-05T08:35:45.116Z,19.50
2018-11-05T08:38:13.390Z,19.80
2018-11-05T08:40:41.688Z,21.07
2018-11-05T08:43:10.028Z,19.27
2018-11-05T08:45:38.336Z,18.70
2018-11-05T08:48:06.579Z,19.90
2018-11-05T08:50:34.914Z,20.73
2018-11-05T08:53:03.128Z,20.57
2018-11-05T08:55:31.424Z,21.43
2018-11-05T08:57:59.824Z,20.10
2018-11-05T09:00:34.929Z,20.83
2018-11-05T09:03:03.206Z,20.43
2018-11-05T09:05:31.455Z,20.20
2018-11-05T09:07:59.796Z,21.73
2018-11-05T09:10:28.314Z,20.53
2018-11-05T09:12:56.320Z,22.23
2018-11-05T09:15:24.639Z,21.20
2018-11-05T09:17:53.892Z,22.37
2018-11-05T09:20:22.147Z,20.57
2018-11-05T09:22:51.021Z,20.27
2018-11-05T09:25:19.358Z,18.50
2018-11-05T09:27:47.665Z,19.63
2018-11-05T09:30:17.308Z,20.13
2018-11-05T09:32:46.081Z,18.37
2018-11-05T09:35:15.489Z,21.20
2018-11-05T09:37:43.763Z,19.40
2018-11-05T09:40:15.175Z,22.00
2018-11-05T09:44:12.703Z,21.40
2018-11-05T09:46:40.910Z,18.50
2018-11-05T09:49:09.192Z,19.73
2018-11-05T09:51:37.642Z,17.53
2018-11-05T09:54:06.219Z,19.47
2018-11-05T09:56:34.575Z,19.60
2018-11-05T09:59:02.834Z,20.27
2018-11-05T10:01:31.067Z,21.47
2018-11-05T10:03:59.700Z,19.27
2018-11-05T10:06:27.905Z,20.97
2018-11-05T10:08:56.127Z,21.33
2018-11-05T10:11:24.422Z,19.33
2018-11-05T10:13:53.034Z,19.07
2018-11-05T10:16:21.311Z,19.70
2018-11-05T10:18:49.562Z,18.37
2018-11-05T10:21:17.782Z,20.80
2018-11-05T10:23:46.063Z,17.47
2018-11-05T10:26:14.939Z,16.20
2018-11-05T10:28:43.217Z,18.83
2018-11-05T10:31:15.700Z,21.53
2018-11-05T10:33:50.234Z,20.27
2018-11-05T10:36:19.287Z,19.03
2018-11-05T10:38:47.651Z,21.20
2018-11-05T10:41:16.224Z,22.47
2018-11-05T10:43:44.484Z,18.10
2018-11-05T10:46:13.063Z,19.80
2018-11-05T10:48:41.418Z,19.40
2018-11-05T10:51:10.116Z,19.73
2018-11-05T10:53:38.431Z,21.07
2018-11-05T10:56:06.905Z,19.43
2018-11-05T10:58:35.120Z,21.60
2018-11-05T11:01:09.540Z,20.57
2018-11-05T11:03:38.816Z,21.50
2018-11-05T11:06:08.927Z,20.93
2018-11-05T11:08:37.345Z,18.50
2018-11-05T11:11:06.291Z,19.47
2018-11-05T11:13:34.566Z,17.37
2018-11-05T11:16:02.828Z,18.13
2018-11-05T11:18:31.066Z,15.77
2018-11-05T11:20:59.567Z,18.87
2018-11-05T11:23:27.909Z,21.97
2018-11-05T11:25:56.224Z,22.97
2018-11-05T11:28:24.540Z,21.43
2018-11-05T11:30:52.700Z,21.70
2018-11-05T11:33:20.972Z,19.40
2018-11-05T11:35:49.239Z,20.23
2018-11-05T11:38:17.513Z,21.23
2018-11-05T11:40:45.791Z,23.20
2018-11-05T11:43:14.767Z,19.17
2018-11-05T11:45:43.061Z,19.77
2018-11-05T11:48:11.287Z,20.83
2018-11-05T11:50:39.660Z,21.37
2018-11-05T11:53:08.165Z,20.30
2018-11-05T11:55:36.523Z,21.90
2018-11-05T11:58:05.244Z,21.97
2018-11-05T12:00:33.478Z,21.70
2018-11-05T12:03:01.943Z,19.50
2018-11-05T12:05:30.664Z,20.07
2018-11-05T12:07:58.949Z,19.37
2018-11-05T12:10:27.247Z,21.43
2018-11-05T12:12:55.472Z,20.43
2018-11-05T12:15:24.038Z,22.13
2018-11-05T12:17:53.219Z,17.27
2018-11-05T12:20:22.772Z,20.03
2018-11-05T12:22:51.478Z,22.13
2018-11-05T12:25:19.881Z,18.93
2018-11-05T12:27:48.163Z,19.33
2018-11-05T12:30:18.296Z,19.57
2018-11-05T12:32:47.201Z,20.63
2018-11-05T12:35:16.281Z,21.70
2018-11-05T12:37:45.663Z,17.83
2018-11-05T12:40:15.268Z,20.57
2018-11-05T12:42:44.749Z,17.90
2018-11-05T12:45:13.047Z,18.67
2018-11-05T12:47:42.004Z,20.23
2018-11-05T12:50:12.935Z,20.40
2018-11-05T12:52:41.529Z,19.00
2018-11-05T12:55:10.295Z,20.97
2018-11-05T12:57:38.611Z,19.53
2018-11-05T13:00:11.707Z,21.77
2018-11-05T13:02:39.950Z,20.07
2018-11-05T13:05:08.787Z,22.07
2018-11-05T13:07:37.101Z,20.67
2018-11-05T13:10:08.275Z,19.90
2018-11-05T13:12:36.475Z,20.47
2018-11-05T13:15:05.479Z,20.33
2018-11-05T13:17:34.040Z,22.57
2018-11-05T13:20:02.674Z,19.90
2018-11-05T13:22:31.008Z,19.43
2018-11-05T13:24:59.415Z,21.67
2018-11-05T13:27:27.693Z,19.43
2018-11-05T13:29:56.301Z,19.03
2018-11-05T13:32:24.519Z,21.87
2018-11-05T13:34:52.699Z,20.97
2018-11-05T13:37:21.129Z,19.83
2018-11-05T13:39:49.271Z,20.47
2018-11-05T13:42:18.643Z,23.00
2018-11-05T13:44:46.893Z,22.30
2018-11-05T13:47:15.634Z,22.87
2018-11-05T13:49:43.848Z,21.83
2018-11-05T13:52:11.979Z,20.67
2018-11-05T13:54:40.476Z,18.73
2018-11-05T13:57:09.339Z,21.30
2018-11-05T13:59:37.584Z,23.53
2018-11-05T14:02:06.049Z,19.90
2018-11-05T14:04:35.298Z,21.90
2018-11-05T14:07:03.574Z,21.90
2018-11-05T14:09:31.892Z,20.70
2018-11-05T14:12:00.172Z,19.90
2018-11-05T14:14:28.409Z,20.57
2018-11-05T14:16:56.707Z,19.63
2018-11-05T14:19:24.983Z,21.93
2018-11-05T14:21:53.215Z,22.03
2018-11-05T14:24:22.016Z,22.37
2018-11-05T14:26:50.479Z,22.93
2018-11-05T14:29:19.277Z,20.70
2018-11-05T14:31:47.114Z,22.37
2018-11-05T14:34:15.387Z,22.33
2018-11-05T14:36:44.821Z,21.23
2018-11-05T14:39:14.180Z,19.83
2018-11-05T14:41:42.831Z,19.47
2018-11-05T14:44:12.420Z,20.57
2018-11-05T14:46:40.659Z,19.10
2018-11-05T14:49:09.275Z,21.17
2018-11-05T14:51:37.563Z,21.97
2018-11-05T14:54:05.890Z,21.90
2018-11-05T14:56:34.832Z,21.93
2018-11-05T14:59:03.095Z,17.47
2018-11-05T15:01:31.878Z,17.20
2018-11-05T15:04:00.187Z,19.43
2018-11-05T15:06:28.439Z,19.87
2018-11-05T15:08:56.696Z,20.23
2018-11-05T15:11:25.566Z,19.60
2018-11-05T15:13:53.823Z,20.00
2018-11-05T15:16:22.318Z,21.93
2018-11-05T15:18:51.350Z,22.47
2018-11-05T15:21:19.426Z,22.57
2018-11-05T15:23:47.634Z,17.83
2018-11-05T15:26:15.868Z,19.13
2018-11-05T15:28:45.123Z,17.93
2018-11-05T15:31:13.483Z,15.93
2018-11-05T15:33:41.791Z,18.03
2018-11-05T15:36:09.983Z,16.77
2018-11-05T15:38:40.521Z,18.20
2018-11-05T15:41:08.802Z,18.03
2018-11-05T15:43:37.714Z,18.17
2018-11-05T15:46:06.518Z,18.63
2018-11-05T15:48:35.628Z,16.40
2018-11-05T15:51:04.716Z,18.03
2018-11-05T15:53:33.229Z,15.37
2018-11-05T15:56:01.261Z,19.83
2018-11-05T15:58:29.560Z,19.40
2018-11-05T16:00:57.835Z,18.60
2018-11-05T16:03:27.088Z,18.53
2018-11-05T16:05:55.332Z,18.30
2018-11-05T16:08:23.641Z,17.80
2018-11-05T16:10:51.958Z,15.30
2018-11-05T16:13:20.323Z,19.43
2018-11-05T16:15:48.720Z,17.47
2018-11-05T16:18:17.043Z,15.33
2018-11-05T16:20:45.298Z,17.07
2018-11-05T16:23:14.063Z,15.33
2018-11-05T16:25:42.348Z,15.63
2018-11-05T16:28:10.575Z,17.40
2018-11-05T16:30:38.867Z,16.93
2018-11-05T16:33:07.036Z,19.43
2018-11-05T16:35:35.375Z,19.87
2018-11-05T16:38:03.558Z,17.17
2018-11-05T16:40:31.822Z,20.37
2018-11-05T16:43:00.048Z,18.83
2018-11-05T16:45:28.599Z,18.07
2018-11-05T16:47:56.811Z,21.30
2018-11-05T16:50:26.787Z,20.33
2018-11-05T16:52:55.191Z,16.23
2018-11-05T16:55:23.619Z,19.37
2018-11-05T16:57:53.245Z,22.57
2018-11-05T17:00:21.948Z,20.80
2018-11-05T17:02:50.655Z,17.00
2018-11-05T17:05:18.608Z,18.07
2018-11-05T17:07:46.860Z,20.30
2018-11-05T17:10:15.670Z,18.60
2018-11-05T17:12:44.563Z,18.10
2018-11-05T17:15:13.959Z,16.90
2018-11-05T17:17:42.731Z,20.33
2018-11-05T17:20:13.084Z,17.87
2018-11-05T17:22:41.887Z,17.43
2018-11-05T17:25:11.047Z,17.93
2018-11-05T17:27:39.368Z,17.70
2018-11-05T17:30:12.319Z,17.07
2018-11-05T17:32:40.639Z,17.23
2018-11-05T17:35:12.021Z,20.07
2018-11-05T17:37:40.324Z,17.13
2018-11-05T17:40:10.683Z,19.53
2018-11-05T17:42:39.387Z,18.30
2018-11-05T17:45:09.168Z,18.90
2018-11-05T17:47:37.452Z,21.10
2018-11-05T17:50:07.836Z,22.17
2018-11-05T17:52:36.071Z,18.13
2018-11-05T17:55:04.881Z,19.93
2018-11-05T17:57:33.161Z,18.63
2018-11-05T18:00:01.414Z,21.30
2018-11-05T18:02:29.712Z,20.47
2018-11-05T18:04:57.963Z,22.03
2018-11-05T18:07:26.236Z,19.40
2018-11-05T18:09:54.865Z,19.27
2018-11-05T18:12:23.779Z,20.93
2018-11-05T18:14:52.113Z,22.70
2018-11-05T18:17:20.446Z,18.20
2018-11-05T18:19:48.709Z,20.40
2018-11-05T18:22:17.539Z,18.20
2018-11-05T18:24:45.807Z,17.07
2018-11-05T18:27:14.197Z,21.30
2018-11-05T18:29:42.991Z,20.07
2018-11-05T18:32:21.615Z,19.40
2018-11-05T18:34:51.559Z,19.00
2018-11-05T18:37:19.831Z,19.57
2018-11-05T18:39:48.307Z,19.73
2018-11-05T18:42:16.639Z,18.70
2018-11-05T18:44:45.004Z,17.73
2018-11-05T18:47:13.376Z,18.57
2018-11-05T18:49:41.968Z,18.07
2018-11-05T18:52:10.679Z,17.87
2018-11-05T18:54:39.315Z,20.80
2018-11-05T18:57:08.031Z,17.70
2018-11-05T18:59:36.215Z,17.10
2018-11-05T19:02:05.192Z,17.13
2018-11-05T19:04:33.543Z,19.63
2018-11-05T19:07:01.765Z,19.67
2018-11-05T19:09:30.216Z,20.47
2018-11-05T19:11:58.536Z,20.80
2018-11-05T19:14:26.937Z,20.20
2018-11-05T19:16:55.195Z,19.93
2018-11-05T19:19:23.520Z,18.60
2018-11-05T19:21:52.028Z,20.20
2018-11-05T19:24:20.595Z,20.17
2018-11-05T19:26:48.803Z,19.60
2018-11-05T19:29:17.108Z,22.42
2018-11-05T19:31:46.550Z,21.57
2018-11-05T19:34:14.967Z,19.13
2018-11-05T19:36:43.200Z,20.03
2018-11-05T19:39:13.482Z,17.73
2018-11-05T19:41:42.087Z,17.80
2018-11-05T19:44:10.298Z,19.20
2018-11-05T19:46:39.076Z,17.67
2018-11-05T19:49:07.352Z,19.53
2018-11-05T19:51:35.655Z,21.37
2018-11-05T19:54:03.924Z,20.23
2018-11-05T19:56:33.296Z,21.10
2018-11-05T19:59:01.511Z,18.20
2018-11-05T20:01:29.788Z,18.80
2018-11-05T20:03:58.081Z,18.77
2018-11-05T20:06:27.272Z,18.70
2018-11-05T20:08:55.563Z,18.63
2018-11-05T20:11:23.817Z,21.00
2018-11-05T20:13:52.520Z,21.83
2018-11-05T20:16:21.211Z,19.83
2018-11-05T20:18:49.623Z,22.97
2018-11-05T20:21:18.171Z,22.43
2018-11-05T20:23:46.416Z,20.73
2018-11-05T20:26:14.723Z,23.67
2018-11-05T20:28:43.025Z,20.20
2018-11-05T20:31:11.420Z,21.50
2018-11-05T20:33:40.343Z,20.43
2018-11-05T20:36:08.358Z,20.60
2018-11-05T20:38:36.687Z,20.47
2018-11-05T20:41:04.939Z,21.70
2018-11-05T20:43:33.226Z,22.13
2018-11-05T20:46:01.608Z,19.40
2018-11-05T20:48:30.056Z,20.60
2018-11-05T20:50:58.480Z,20.80
2018-11-05T20:53:26.995Z,20.30
2018-11-05T20:55:55.221Z,20.07
2018-11-05T20:58:23.625Z,24.37
2018-11-05T21:00:52.059Z,22.00
2018-11-05T21:03:21.057Z,21.70
2018-11-05T21:05:49.289Z,22.50
2018-11-05T21:08:17.578Z,26.97
2018-11-05T21:10:45.804Z,25.87
2018-11-05T21:13:14.116Z,22.47
2018-11-05T21:15:42.416Z,23.27
2018-11-05T21:18:10.660Z,25.70
2018-11-05T21:20:38.855Z,23.63
2018-11-05T21:23:07.180Z,23.10
2018-11-05T21:25:35.335Z,25.50
2018-11-05T21:28:03.683Z,26.20
2018-11-05T21:30:32.483Z,23.97
2018-11-05T21:33:01.808Z,24.97
2018-11-05T21:35:30.067Z,24.00
2018-11-05T21:37:58.359Z,25.53
2018-11-05T21:40:26.670Z,24.47
2018-11-05T21:42:54.895Z,25.40
2018-11-05T21:45:23.158Z,25.10
2018-11-05T21:47:51.427Z,25.70
2018-11-05T21:50:20.075Z,25.87
2018-11-05T21:52:50.233Z,25.90
2018-11-05T21:55:18.526Z,24.93
2018-11-05T21:57:48.081Z,29.37
2018-11-05T22:00:19.674Z,26.30
2018-11-05T22:02:53.254Z,27.80
2018-11-05T22:05:22.813Z,27.17
2018-11-05T22:07:51.794Z,28.10
2018-11-05T22:10:20.796Z,25.80
2018-11-05T22:12:49.172Z,26.70
2018-11-05T22:15:17.743Z,26.20
2018-11-05T22:17:46.067Z,28.87
2018-11-05T22:20:14.420Z,26.77
2018-11-05T22:22:42.748Z,27.77
2018-11-05T22:25:11.419Z,28.60
2018-11-05T22:27:40.648Z,27.10
2018-11-05T22:30:10.111Z,27.73
2018-11-05T22:32:38.391Z,30.97
2018-11-05T22:35:06.872Z,30.73
2018-11-05T22:37:35.316Z,31.23
2018-11-05T22:40:04.464Z,29.93
2018-11-05T22:42:33.368Z,29.97
2018-11-05T22:45:01.679Z,26.33
2018-11-05T22:47:30.028Z,25.50
2018-11-05T22:49:58.275Z,30.07
2018-11-05T22:52:26.516Z,27.73
2018-11-05T22:54:54.739Z,29.50
2018-11-05T22:57:23.034Z,29.23
2018-11-05T22:59:51.408Z,28.37
2018-11-05T23:02:19.699Z,28.17
2018-11-05T23:04:47.956Z,27.80
2018-11-05T23:07:16.231Z,30.90
2018-11-05T23:09:44.452Z,27.67
2018-11-05T23:12:12.723Z,26.13
2018-11-05T23:14:41.047Z,25.73
2018-11-05T23:17:09.310Z,31.73
2018-11-05T23:19:37.587Z,27.20
2018-11-05T23:22:06.503Z,26.87
2018-11-05T23:24:34.847Z,29.87
2018-11-05T23:27:03.123Z,29.83
2018-11-05T23:29:31.755Z,28.67
2018-11-05T23:32:00.075Z,29.00
2018-11-05T23:34:28.327Z,29.20
2018-11-05T23:36:56.603Z,27.17
2018-11-05T23:39:24.880Z,30.03
2018-11-05T23:41:53.184Z,27.13
2018-11-05T23:44:22.056Z,26.10
2018-11-05T23:46:50.351Z,25.13
2018-11-05T23:49:19.051Z,26.27
2018-11-05T23:51:47.415Z,26.53
2018-11-05T23:54:15.552Z,26.07
2018-11-05T23:56:43.904Z,26.93
2018-11-05T23:59:12.244Z,24.70
